createdAt,value
2022-09-16T00:00:27.766Z,73.22
2022-09-16T00:03:20.674Z,73.32
2022-09-16T00:05:54.109Z,73.22
2022-09-16T00:08:26.001Z,73.49
2022-09-16T00:11:02.421Z,73.50
2022-09-16T00:13:34.201Z,73.64
2022-09-16T00:16:10.642Z,73.70
2022-09-16T00:18:42.472Z,73.84
2022-09-16T00:21:14.824Z,73.82
2022-09-16T00:23:46.813Z,73.90
2022-09-16T00:26:19.576Z,73.87
2022-09-16T00:28:52.355Z,73.96
2022-09-16T00:31:24.258Z,74.02
2022-09-16T00:33:56.237Z,73.91
2022-09-16T00:36:28.056Z,74.06
2022-09-16T00:38:59.909Z,74.01
2022-09-16T00:41:33.568Z,74.01
2022-09-16T00:44:08.118Z,74.02
2022-09-16T00:46:44.985Z,74.02
2022-09-16T00:49:21.847Z,74.09
2022-09-16T00:51:57.205Z,73.96
2022-09-16T00:54:30.210Z,74.01
2022-09-16T00:57:04.844Z,74.04
2022-09-16T00:59:39.872Z,74.10
2022-09-16T01:02:15.042Z,74.06
2022-09-16T01:04:52.244Z,73.99
2022-09-16T01:07:32.303Z,74.06
2022-09-16T01:14:54.561Z,74.05
2022-09-16T01:17:38.443Z,74.04
2022-09-16T01:20:39.745Z,73.97
2022-09-16T01:23:52.088Z,73.99
2022-09-16T01:26:53.338Z,73.99
2022-09-16T01:29:46.203Z,74.06
2022-09-16T01:32:24.357Z,73.83
2022-09-16T01:35:06.136Z,73.96
2022-09-16T01:37:48.205Z,73.86
2022-09-16T01:40:29.768Z,73.83
2022-09-16T01:43:09.724Z,73.85
2022-09-16T01:45:50.335Z,73.84
2022-09-16T01:48:31.841Z,73.82
2022-09-16T01:51:08.855Z,73.85
2022-09-16T01:53:41.059Z,73.88
2022-09-16T01:56:22.049Z,73.97
2022-09-16T01:58:59.391Z,73.93
2022-09-16T02:01:37.520Z,73.94
2022-09-16T02:04:14.611Z,73.88
2022-09-16T02:06:49.286Z,73.98
2022-09-16T02:09:25.903Z,73.88
2022-09-16T02:12:05.526Z,73.89
2022-09-16T02:14:41.737Z,73.87
2022-09-16T02:17:16.537Z,73.87
2022-09-16T02:19:55.061Z,73.91
2022-09-16T02:22:33.528Z,73.78
2022-09-16T02:25:08.570Z,74.01
2022-09-16T02:27:43.575Z,73.91
2022-09-16T02:30:19.456Z,73.96
2022-09-16T02:32:55.697Z,73.99
2022-09-16T02:35:29.584Z,73.95
2022-09-16T02:38:05.169Z,73.94
2022-09-16T02:40:40.165Z,74.07
2022-09-16T02:43:12.478Z,74.11
2022-09-16T02:45:53.156Z,74.08
2022-09-16T02:48:33.663Z,74.26
2022-09-16T02:51:15.423Z,74.28
2022-09-16T02:53:53.905Z,74.28
2022-09-16T02:56:32.204Z,74.50
2022-09-16T02:59:07.177Z,74.51
2022-09-16T03:01:43.112Z,74.58
2022-09-16T03:04:18.190Z,74.60
2022-09-16T03:06:50.668Z,74.71
2022-09-16T03:09:24.921Z,74.64
2022-09-16T03:12:22.675Z,74.74
2022-09-16T03:15:26.560Z,74.75
2022-09-16T03:18:22.621Z,74.90
2022-09-16T03:21:01.718Z,74.77
2022-09-16T03:23:44.720Z,74.78
2022-09-16T03:26:32.195Z,74.90
2022-09-16T03:29:14.075Z,74.88
2022-09-16T03:31:53.567Z,74.77
2022-09-16T03:34:31.394Z,74.93
2022-09-16T03:37:08.248Z,74.87
2022-09-16T03:39:41.580Z,74.86
2022-09-16T03:42:15.391Z,74.99
2022-09-16T03:44:47.516Z,75.02
2022-09-16T03:47:21.135Z,75.17
2022-09-16T03:49:53.204Z,75.28
2022-09-16T03:52:25.183Z,75.29
2022-09-16T03:54:57.303Z,75.38
2022-09-16T03:57:30.443Z,75.40
2022-09-16T04:00:03.339Z,75.37
2022-09-16T04:02:43.739Z,75.38
2022-09-16T04:05:15.915Z,75.39
2022-09-16T04:07:49.756Z,75.69
2022-09-16T04:10:22.060Z,75.63
2022-09-16T04:12:57.499Z,75.56
2022-09-16T04:15:29.490Z,75.63
2022-09-16T04:18:03.150Z,75.79
2022-09-16T04:20:36.409Z,75.81
2022-09-16T04:23:08.518Z,75.87
2022-09-16T04:25:41.152Z,75.97
2022-09-16T04:28:13.212Z,76.14
2022-09-16T04:30:45.311Z,76.20
2022-09-16T04:33:18.949Z,76.16
2022-09-16T04:35:50.979Z,76.25
2022-09-16T04:38:23.091Z,76.16
2022-09-16T04:41:01.004Z,76.15
2022-09-16T04:43:33.079Z,76.27
2022-09-16T04:46:05.592Z,76.31
2022-09-16T04:48:38.020Z,76.33
2022-09-16T04:51:12.158Z,76.19
2022-09-16T04:53:45.319Z,76.12
2022-09-16T04:56:19.702Z,75.92
2022-09-16T04:58:53.624Z,75.80
2022-09-16T05:01:27.677Z,75.59
2022-09-16T05:04:02.188Z,75.48
2022-09-16T05:06:36.472Z,75.61
2022-09-16T05:09:09.803Z,75.50
2022-09-16T05:11:43.108Z,75.09
2022-09-16T05:14:17.749Z,74.74
2022-09-16T05:16:50.469Z,73.89
2022-09-16T05:19:22.771Z,72.44
2022-09-16T05:21:54.907Z,71.59
2022-09-16T05:24:27.037Z,70.25
2022-09-16T05:26:59.080Z,69.51
2022-09-16T05:29:31.122Z,68.57
2022-09-16T05:32:03.504Z,67.84
2022-09-16T05:34:37.030Z,67.01
2022-09-16T05:37:09.100Z,66.20
2022-09-16T05:39:41.157Z,66.14
2022-09-16T05:42:13.590Z,65.91
2022-09-16T05:44:45.653Z,64.95
2022-09-16T05:47:17.589Z,64.25
2022-09-16T05:49:49.862Z,63.75
2022-09-16T05:52:22.011Z,64.15
2022-09-16T05:54:54.061Z,64.17
2022-09-16T05:57:26.582Z,64.06
2022-09-16T05:59:58.636Z,64.00
2022-09-16T06:02:30.820Z,63.96
2022-09-16T06:05:03.337Z,64.07
2022-09-16T06:07:35.429Z,63.91
2022-09-16T06:10:09.179Z,63.91
2022-09-16T06:12:41.253Z,64.15
2022-09-16T06:15:15.604Z,64.07
2022-09-16T06:17:47.644Z,64.16
2022-09-16T06:20:20.669Z,63.91
2022-09-16T06:22:53.036Z,63.80
2022-09-16T06:25:25.106Z,64.13
2022-09-16T06:27:57.207Z,64.47
2022-09-16T06:30:31.191Z,64.06
2022-09-16T06:33:03.488Z,63.99
2022-09-16T06:35:36.836Z,63.89
2022-09-16T06:38:08.884Z,63.82
2022-09-16T06:40:40.984Z,64.13
2022-09-16T06:43:13.035Z,63.18
2022-09-16T06:45:45.129Z,62.60
2022-09-16T06:48:17.422Z,62.39
2022-09-16T06:50:49.460Z,61.93
2022-09-16T06:53:21.473Z,60.21
2022-09-16T06:55:53.516Z,59.84
2022-09-16T06:58:25.849Z,59.70
2022-09-16T07:00:57.952Z,58.19
2022-09-16T07:03:31.180Z,56.53
2022-09-16T07:06:03.902Z,54.68
2022-09-16T07:08:37.993Z,53.94
2022-09-16T07:11:12.335Z,52.84
2022-09-16T07:13:45.547Z,51.35
2022-09-16T07:16:20.091Z,49.80
2022-09-16T07:19:00.610Z,49.02
2022-09-16T07:21:33.808Z,48.30
2022-09-16T07:24:06.585Z,48.49
2022-09-16T07:26:38.916Z,45.79
2022-09-16T07:29:14.516Z,44.69
2022-09-16T07:31:46.859Z,44.30
2022-09-16T07:34:20.139Z,44.49
2022-09-16T07:36:53.020Z,43.76
2022-09-16T07:39:25.959Z,43.18
2022-09-16T07:42:00.596Z,42.26
2022-09-16T07:44:34.770Z,42.13
2022-09-16T07:47:07.035Z,41.78
2022-09-16T07:49:39.066Z,41.57
2022-09-16T07:52:11.546Z,41.31
2022-09-16T07:54:43.902Z,40.86
2022-09-16T07:57:16.032Z,40.35
2022-09-16T07:59:48.934Z,39.73
2022-09-16T08:02:21.187Z,39.05
2022-09-16T08:04:53.882Z,38.60
2022-09-16T08:07:26.177Z,37.88
2022-09-16T08:09:58.228Z,37.42
2022-09-16T08:12:33.720Z,37.51
2022-09-16T08:15:06.587Z,37.76
2022-09-16T08:17:38.833Z,37.85
2022-09-16T08:20:13.002Z,37.19
2022-09-16T08:22:45.068Z,36.27
2022-09-16T08:25:17.300Z,36.15
2022-09-16T08:27:52.852Z,36.65
2022-09-16T08:30:28.131Z,35.68
2022-09-16T08:33:01.413Z,35.21
2022-09-16T08:35:34.136Z,34.81
2022-09-16T08:38:06.224Z,35.65
2022-09-16T08:40:39.235Z,36.27
2022-09-16T08:43:20.940Z,35.50
2022-09-16T08:46:00.856Z,34.90
2022-09-16T08:48:41.575Z,34.90
2022-09-16T08:51:18.804Z,35.25
2022-09-16T08:53:58.706Z,35.38
2022-09-16T08:56:35.321Z,35.64
2022-09-16T08:59:15.248Z,35.69
2022-09-16T09:01:53.466Z,35.22
2022-09-16T09:04:26.212Z,35.58
2022-09-16T09:07:06.652Z,35.54
2022-09-16T09:10:01.810Z,35.91
2022-09-16T09:12:41.251Z,36.31
2022-09-16T09:15:37.782Z,36.76
2022-09-16T09:18:32.585Z,37.50
2022-09-16T09:21:17.042Z,37.81
2022-09-16T09:24:24.272Z,38.19
2022-09-16T09:27:04.178Z,38.97
2022-09-16T09:30:00.243Z,39.84
2022-09-16T09:32:49.398Z,39.89
2022-09-16T09:35:39.708Z,40.15
2022-09-16T09:38:37.527Z,39.16
2022-09-16T09:41:14.122Z,39.38
2022-09-16T09:43:50.492Z,39.50
2022-09-16T09:46:27.285Z,39.01
2022-09-16T09:48:59.716Z,39.28
2022-09-16T09:51:37.500Z,39.34
2022-09-16T09:54:28.053Z,39.79
2022-09-16T09:57:04.257Z,39.27
2022-09-16T09:59:44.874Z,39.41
2022-09-16T10:02:19.903Z,39.44
2022-09-16T10:04:52.520Z,39.91
2022-09-16T10:07:28.874Z,40.56
2022-09-16T10:10:05.105Z,41.23
2022-09-16T10:12:38.582Z,41.41
2022-09-16T10:15:23.839Z,41.95
2022-09-16T10:17:56.921Z,42.57
2022-09-16T10:20:33.120Z,42.61
2022-09-16T10:23:06.201Z,43.05
2022-09-16T10:25:38.851Z,43.41
2022-09-16T10:28:22.075Z,43.66
2022-09-16T10:30:56.722Z,43.76
2022-09-16T10:33:32.894Z,44.34
2022-09-16T10:36:07.591Z,44.75
2022-09-16T10:38:42.471Z,45.19
2022-09-16T10:41:21.572Z,44.53
2022-09-16T10:43:57.427Z,44.37
2022-09-16T10:46:31.576Z,43.92
2022-09-16T10:49:13.896Z,43.77
2022-09-16T10:51:46.021Z,42.84
2022-09-16T10:54:28.417Z,42.72
2022-09-16T10:57:00.759Z,41.48
2022-09-16T10:59:33.099Z,41.02
2022-09-16T11:02:22.937Z,41.13
